sensor_id;sensor_type;location;lat;lon;timestamp;P1;durP1;ratioP1;P2;durP2;ratioP2
31728;SDS011;18309;43.658;1.312;2023-06-26T00:02:20;21.60;;;9.73;;
31728;SDS011;18309;43.658;1.312;2023-06-26T00:04:46;28.67;;;9.02;;
31728;SDS011;18309;43.658;1.312;2023-06-26T00:07:11;18.42;;;8.68;;
31728;SDS011;18309;43.658;1.312;2023-06-26T00:09:37;19.67;;;9.23;;
31728;SDS011;18309;43.658;1.312;2023-06-26T00:12:03;17.15;;;9.02;;
31728;SDS011;18309;43.658;1.312;2023-06-26T00:14:29;21.77;;;9.20;;
31728;SDS011;18309;43.658;1.312;2023-06-26T00:16:54;19.20;;;9.23;;
31728;SDS011;18309;43.658;1.312;2023-06-26T00:19:20;17.40;;;8.70;;
31728;SDS011;18309;43.658;1.312;2023-06-26T00:21:46;17.88;;;9.07;;
31728;SDS011;18309;43.658;1.312;2023-06-26T00:24:16;19.83;;;9.32;;
31728;SDS011;18309;43.658;1.312;2023-06-26T00:26:42;18.27;;;8.98;;
31728;SDS011;18309;43.658;1.312;2023-06-26T00:29:08;14.70;;;8.65;;
31728;SDS011;18309;43.658;1.312;2023-06-26T00:31:34;15.15;;;8.32;;
31728;SDS011;18309;43.658;1.312;2023-06-26T00:34:00;19.77;;;8.85;;
31728;SDS011;18309;43.658;1.312;2023-06-26T00:36:26;22.52;;;9.07;;
31728;SDS011;18309;43.658;1.312;2023-06-26T00:38:52;18.73;;;8.25;;
31728;SDS011;18309;43.658;1.312;2023-06-26T00:41:18;20.63;;;8.88;;
31728;SDS011;18309;43.658;1.312;2023-06-26T00:43:44;17.42;;;7.60;;
31728;SDS011;18309;43.658;1.312;2023-06-26T00:46:11;17.10;;;9.25;;
31728;SDS011;18309;43.658;1.312;2023-06-26T00:48:38;20.02;;;8.38;;
31728;SDS011;18309;43.658;1.312;2023-06-26T00:51:06;19.63;;;8.75;;
31728;SDS011;18309;43.658;1.312;2023-06-26T00:53:32;19.42;;;8.75;;
31728;SDS011;18309;43.658;1.312;2023-06-26T00:55:59;19.52;;;8.40;;
31728;SDS011;18309;43.658;1.312;2023-06-26T00:58:25;16.83;;;8.43;;
31728;SDS011;18309;43.658;1.312;2023-06-26T01:00:51;15.18;;;8.52;;
31728;SDS011;18309;43.658;1.312;2023-06-26T01:03:18;14.75;;;8.57;;
31728;SDS011;18309;43.658;1.312;2023-06-26T01:05:45;16.60;;;8.65;;
31728;SDS011;18309;43.658;1.312;2023-06-26T01:08:14;17.05;;;8.82;;
31728;SDS011;18309;43.658;1.312;2023-06-26T01:10:40;18.45;;;8.77;;
31728;SDS011;18309;43.658;1.312;2023-06-26T01:13:06;16.00;;;8.68;;
31728;SDS011;18309;43.658;1.312;2023-06-26T01:15:33;16.23;;;8.98;;
31728;SDS011;18309;43.658;1.312;2023-06-26T01:17:58;24.88;;;8.85;;
31728;SDS011;18309;43.658;1.312;2023-06-26T01:20:26;18.23;;;8.73;;
31728;SDS011;18309;43.658;1.312;2023-06-26T01:28:13;18.98;;;8.73;;
31728;SDS011;18309;43.658;1.312;2023-06-26T01:30:41;19.05;;;7.85;;
31728;SDS011;18309;43.658;1.312;2023-06-26T01:33:08;23.45;;;9.45;;
31728;SDS011;18309;43.658;1.312;2023-06-26T01:35:34;16.08;;;8.13;;
31728;SDS011;18309;43.658;1.312;2023-06-26T01:38:13;23.98;;;8.57;;
31728;SDS011;18309;43.658;1.312;2023-06-26T01:40:40;21.15;;;8.88;;
31728;SDS011;18309;43.658;1.312;2023-06-26T01:43:06;17.95;;;7.80;;
31728;SDS011;18309;43.658;1.312;2023-06-26T01:45:46;20.65;;;9.50;;
31728;SDS011;18309;43.658;1.312;2023-06-26T01:48:15;13.98;;;7.32;;
31728;SDS011;18309;43.658;1.312;2023-06-26T01:50:44;24.17;;;9.00;;
31728;SDS011;18309;43.658;1.312;2023-06-26T01:53:11;17.33;;;8.77;;
31728;SDS011;18309;43.658;1.312;2023-06-26T01:55:46;19.38;;;8.00;;
31728;SDS011;18309;43.658;1.312;2023-06-26T01:58:15;19.33;;;7.95;;
31728;SDS011;18309;43.658;1.312;2023-06-26T02:00:44;24.35;;;8.27;;
31728;SDS011;18309;43.658;1.312;2023-06-26T02:03:09;21.90;;;9.23;;
31728;SDS011;18309;43.658;1.312;2023-06-26T02:05:35;18.90;;;8.48;;
31728;SDS011;18309;43.658;1.312;2023-06-26T02:08:01;21.13;;;8.60;;
31728;SDS011;18309;43.658;1.312;2023-06-26T02:10:28;25.17;;;9.50;;
31728;SDS011;18309;43.658;1.312;2023-06-26T02:12:53;22.85;;;8.75;;
31728;SDS011;18309;43.658;1.312;2023-06-26T02:15:19;17.60;;;7.95;;
31728;SDS011;18309;43.658;1.312;2023-06-26T02:17:45;24.88;;;9.23;;
31728;SDS011;18309;43.658;1.312;2023-06-26T02:20:14;29.67;;;9.13;;
31728;SDS011;18309;43.658;1.312;2023-06-26T02:22:40;21.73;;;9.65;;
31728;SDS011;18309;43.658;1.312;2023-06-26T02:25:07;23.58;;;8.43;;
31728;SDS011;18309;43.658;1.312;2023-06-26T02:27:33;19.02;;;9.00;;
31728;SDS011;18309;43.658;1.312;2023-06-26T02:29:58;24.17;;;9.55;;
31728;SDS011;18309;43.658;1.312;2023-06-26T02:32:24;19.13;;;9.68;;
31728;SDS011;18309;43.658;1.312;2023-06-26T02:34:50;21.60;;;10.05;;
31728;SDS011;18309;43.658;1.312;2023-06-26T02:37:17;20.75;;;9.18;;
31728;SDS011;18309;43.658;1.312;2023-06-26T02:39:43;20.08;;;9.05;;
31728;SDS011;18309;43.658;1.312;2023-06-26T02:42:08;22.17;;;9.32;;
31728;SDS011;18309;43.658;1.312;2023-06-26T02:44:34;20.80;;;8.82;;
31728;SDS011;18309;43.658;1.312;2023-06-26T02:47:00;22.40;;;9.25;;
31728;SDS011;18309;43.658;1.312;2023-06-26T02:49:25;24.65;;;10.18;;
31728;SDS011;18309;43.658;1.312;2023-06-26T02:51:51;30.00;;;10.05;;
31728;SDS011;18309;43.658;1.312;2023-06-26T02:54:16;22.52;;;9.05;;
31728;SDS011;18309;43.658;1.312;2023-06-26T02:56:42;28.85;;;8.90;;
31728;SDS011;18309;43.658;1.312;2023-06-26T02:59:08;23.13;;;9.85;;
31728;SDS011;18309;43.658;1.312;2023-06-26T03:01:33;28.00;;;9.18;;
31728;SDS011;18309;43.658;1.312;2023-06-26T03:03:59;21.02;;;9.27;;
31728;SDS011;18309;43.658;1.312;2023-06-26T03:06:26;20.25;;;8.65;;
31728;SDS011;18309;43.658;1.312;2023-06-26T03:08:52;22.80;;;9.70;;
31728;SDS011;18309;43.658;1.312;2023-06-26T03:11:18;25.13;;;9.52;;
31728;SDS011;18309;43.658;1.312;2023-06-26T03:13:44;28.98;;;10.00;;
31728;SDS011;18309;43.658;1.312;2023-06-26T03:16:10;28.40;;;9.82;;
31728;SDS011;18309;43.658;1.312;2023-06-26T03:18:35;21.67;;;8.85;;
31728;SDS011;18309;43.658;1.312;2023-06-26T03:21:01;20.15;;;9.00;;
31728;SDS011;18309;43.658;1.312;2023-06-26T03:23:27;23.80;;;9.20;;
31728;SDS011;18309;43.658;1.312;2023-06-26T03:25:52;22.77;;;9.18;;
31728;SDS011;18309;43.658;1.312;2023-06-26T03:28:18;21.65;;;8.95;;
31728;SDS011;18309;43.658;1.312;2023-06-26T03:30:44;20.45;;;8.95;;
31728;SDS011;18309;43.658;1.312;2023-06-26T03:33:10;23.85;;;9.20;;
31728;SDS011;18309;43.658;1.312;2023-06-26T03:35:35;19.38;;;8.85;;
31728;SDS011;18309;43.658;1.312;2023-06-26T03:38:01;24.42;;;9.48;;
31728;SDS011;18309;43.658;1.312;2023-06-26T03:40:28;23.65;;;8.90;;
31728;SDS011;18309;43.658;1.312;2023-06-26T03:42:53;15.05;;;8.63;;
31728;SDS011;18309;43.658;1.312;2023-06-26T03:45:19;24.83;;;9.48;;
31728;SDS011;18309;43.658;1.312;2023-06-26T03:47:45;25.80;;;9.05;;
31728;SDS011;18309;43.658;1.312;2023-06-26T03:50:14;22.85;;;9.07;;
31728;SDS011;18309;43.658;1.312;2023-06-26T03:52:40;21.02;;;9.07;;
31728;SDS011;18309;43.658;1.312;2023-06-26T03:55:06;24.10;;;8.95;;
31728;SDS011;18309;43.658;1.312;2023-06-26T03:57:32;19.63;;;8.50;;
31728;SDS011;18309;43.658;1.312;2023-06-26T03:59:57;25.25;;;9.38;;
31728;SDS011;18309;43.658;1.312;2023-06-26T04:02:23;34.60;;;9.18;;
31728;SDS011;18309;43.658;1.312;2023-06-26T04:04:48;20.05;;;8.52;;
31728;SDS011;18309;43.658;1.312;2023-06-26T04:07:14;24.95;;;8.82;;
31728;SDS011;18309;43.658;1.312;2023-06-26T04:09:40;24.48;;;9.60;;
31728;SDS011;18309;43.658;1.312;2023-06-26T04:12:06;17.23;;;9.30;;
31728;SDS011;18309;43.658;1.312;2023-06-26T04:14:31;23.38;;;8.93;;
31728;SDS011;18309;43.658;1.312;2023-06-26T04:16:57;24.38;;;9.10;;
31728;SDS011;18309;43.658;1.312;2023-06-26T04:19:26;20.25;;;9.10;;
31728;SDS011;18309;43.658;1.312;2023-06-26T04:21:52;23.23;;;8.73;;
31728;SDS011;18309;43.658;1.312;2023-06-26T04:24:18;22.75;;;8.45;;
31728;SDS011;18309;43.658;1.312;2023-06-26T04:26:43;20.35;;;8.85;;
31728;SDS011;18309;43.658;1.312;2023-06-26T04:29:10;26.90;;;9.48;;
31728;SDS011;18309;43.658;1.312;2023-06-26T04:31:36;20.60;;;8.32;;
31728;SDS011;18309;43.658;1.312;2023-06-26T04:34:04;18.60;;;8.35;;
31728;SDS011;18309;43.658;1.312;2023-06-26T04:36:30;23.33;;;8.00;;
31728;SDS011;18309;43.658;1.312;2023-06-26T04:38:58;23.77;;;7.75;;
31728;SDS011;18309;43.658;1.312;2023-06-26T04:41:24;18.48;;;7.38;;
31728;SDS011;18309;43.658;1.312;2023-06-26T04:43:50;19.80;;;7.43;;
31728;SDS011;18309;43.658;1.312;2023-06-26T04:46:16;23.65;;;7.05;;
31728;SDS011;18309;43.658;1.312;2023-06-26T04:48:42;19.30;;;7.28;;
31728;SDS011;18309;43.658;1.312;2023-06-26T04:51:09;16.55;;;7.15;;
31728;SDS011;18309;43.658;1.312;2023-06-26T04:53:35;18.17;;;6.63;;
31728;SDS011;18309;43.658;1.312;2023-06-26T04:56:01;18.42;;;6.90;;
31728;SDS011;18309;43.658;1.312;2023-06-26T04:58:27;21.08;;;6.82;;
31728;SDS011;18309;43.658;1.312;2023-06-26T05:00:52;17.05;;;6.47;;
31728;SDS011;18309;43.658;1.312;2023-06-26T05:03:18;13.15;;;6.13;;
31728;SDS011;18309;43.658;1.312;2023-06-26T05:05:44;16.40;;;6.78;;
31728;SDS011;18309;43.658;1.312;2023-06-26T05:08:14;17.90;;;7.65;;
31728;SDS011;18309;43.658;1.312;2023-06-26T05:10:43;18.50;;;6.55;;
31728;SDS011;18309;43.658;1.312;2023-06-26T05:13:09;21.05;;;7.15;;
31728;SDS011;18309;43.658;1.312;2023-06-26T05:15:36;13.68;;;6.63;;
31728;SDS011;18309;43.658;1.312;2023-06-26T05:18:02;19.13;;;6.57;;
31728;SDS011;18309;43.658;1.312;2023-06-26T05:20:27;19.10;;;7.30;;
31728;SDS011;18309;43.658;1.312;2023-06-26T05:22:53;13.73;;;6.70;;
31728;SDS011;18309;43.658;1.312;2023-06-26T05:25:20;21.10;;;6.72;;
31728;SDS011;18309;43.658;1.312;2023-06-26T05:27:47;13.50;;;6.03;;
31728;SDS011;18309;43.658;1.312;2023-06-26T05:30:13;16.80;;;6.65;;
31728;SDS011;18309;43.658;1.312;2023-06-26T05:32:40;19.35;;;6.20;;
31728;SDS011;18309;43.658;1.312;2023-06-26T05:35:06;19.45;;;6.78;;
31728;SDS011;18309;43.658;1.312;2023-06-26T05:37:32;20.35;;;6.95;;
31728;SDS011;18309;43.658;1.312;2023-06-26T05:39:59;20.23;;;7.72;;
31728;SDS011;18309;43.658;1.312;2023-06-26T05:42:28;21.25;;;7.43;;
31728;SDS011;18309;43.658;1.312;2023-06-26T05:44:55;21.25;;;7.55;;
31728;SDS011;18309;43.658;1.312;2023-06-26T05:47:20;21.75;;;6.65;;
31728;SDS011;18309;43.658;1.312;2023-06-26T05:49:46;16.80;;;6.45;;
31728;SDS011;18309;43.658;1.312;2023-06-26T05:52:12;15.18;;;6.28;;
31728;SDS011;18309;43.658;1.312;2023-06-26T05:54:38;18.63;;;6.07;;
31728;SDS011;18309;43.658;1.312;2023-06-26T05:57:04;120.57;;;26.88;;
31728;SDS011;18309;43.658;1.312;2023-06-26T05:59:33;215.75;;;41.53;;
31728;SDS011;18309;43.658;1.312;2023-06-26T06:02:01;85.03;;;19.67;;
31728;SDS011;18309;43.658;1.312;2023-06-26T06:04:27;31.95;;;8.35;;
31728;SDS011;18309;43.658;1.312;2023-06-26T06:06:53;19.30;;;6.68;;
31728;SDS011;18309;43.658;1.312;2023-06-26T06:09:19;26.50;;;6.40;;
31728;SDS011;18309;43.658;1.312;2023-06-26T06:11:44;52.97;;;9.82;;
31728;SDS011;18309;43.658;1.312;2023-06-26T06:14:10;109.18;;;22.50;;
31728;SDS011;18309;43.658;1.312;2023-06-26T06:16:36;102.90;;;21.20;;
31728;SDS011;18309;43.658;1.312;2023-06-26T06:19:03;95.35;;;19.23;;
31728;SDS011;18309;43.658;1.312;2023-06-26T06:21:31;37.67;;;10.73;;
31728;SDS011;18309;43.658;1.312;2023-06-26T06:23:57;34.42;;;7.38;;
31728;SDS011;18309;43.658;1.312;2023-06-26T06:26:23;17.13;;;6.70;;
31728;SDS011;18309;43.658;1.312;2023-06-26T06:28:48;18.15;;;5.72;;
31728;SDS011;18309;43.658;1.312;2023-06-26T06:31:14;28.85;;;7.50;;
31728;SDS011;18309;43.658;1.312;2023-06-26T06:33:40;16.05;;;5.38;;
31728;SDS011;18309;43.658;1.312;2023-06-26T06:36:05;19.30;;;5.72;;
31728;SDS011;18309;43.658;1.312;2023-06-26T06:38:31;25.08;;;6.78;;
31728;SDS011;18309;43.658;1.312;2023-06-26T06:40:57;27.23;;;6.25;;
31728;SDS011;18309;43.658;1.312;2023-06-26T06:43:22;18.17;;;6.10;;
31728;SDS011;18309;43.658;1.312;2023-06-26T06:45:48;17.20;;;5.45;;
31728;SDS011;18309;43.658;1.312;2023-06-26T06:48:14;35.80;;;8.50;;
31728;SDS011;18309;43.658;1.312;2023-06-26T06:50:39;43.53;;;11.35;;
31728;SDS011;18309;43.658;1.312;2023-06-26T06:53:05;58.30;;;12.15;;
31728;SDS011;18309;43.658;1.312;2023-06-26T06:55:32;25.38;;;6.55;;
31728;SDS011;18309;43.658;1.312;2023-06-26T06:57:57;30.58;;;8.30;;
31728;SDS011;18309;43.658;1.312;2023-06-26T07:00:23;24.77;;;7.15;;
31728;SDS011;18309;43.658;1.312;2023-06-26T07:02:49;24.27;;;7.75;;
31728;SDS011;18309;43.658;1.312;2023-06-26T07:05:16;25.67;;;6.78;;
31728;SDS011;18309;43.658;1.312;2023-06-26T07:07:41;29.35;;;6.30;;
31728;SDS011;18309;43.658;1.312;2023-06-26T07:12:34;17.80;;;6.05;;
31728;SDS011;18309;43.658;1.312;2023-06-26T07:15:01;20.40;;;8.25;;
31728;SDS011;18309;43.658;1.312;2023-06-26T07:17:28;13.55;;;5.53;;
31728;SDS011;18309;43.658;1.312;2023-06-26T07:19:53;15.82;;;6.25;;
31728;SDS011;18309;43.658;1.312;2023-06-26T07:22:19;12.70;;;4.90;;
31728;SDS011;18309;43.658;1.312;2023-06-26T07:24:46;10.27;;;5.78;;
31728;SDS011;18309;43.658;1.312;2023-06-26T07:27:13;14.55;;;5.95;;
31728;SDS011;18309;43.658;1.312;2023-06-26T07:29:39;18.45;;;6.72;;
31728;SDS011;18309;43.658;1.312;2023-06-26T07:32:05;20.58;;;6.80;;
31728;SDS011;18309;43.658;1.312;2023-06-26T07:34:31;19.67;;;5.97;;
31728;SDS011;18309;43.658;1.312;2023-06-26T07:36:57;12.63;;;5.75;;
31728;SDS011;18309;43.658;1.312;2023-06-26T07:39:22;22.23;;;5.88;;
31728;SDS011;18309;43.658;1.312;2023-06-26T07:41:48;14.48;;;5.25;;
31728;SDS011;18309;43.658;1.312;2023-06-26T07:44:13;38.85;;;7.63;;
31728;SDS011;18309;43.658;1.312;2023-06-26T07:46:39;12.95;;;5.65;;
31728;SDS011;18309;43.658;1.312;2023-06-26T07:49:05;15.38;;;5.63;;
31728;SDS011;18309;43.658;1.312;2023-06-26T07:51:30;14.68;;;5.22;;
31728;SDS011;18309;43.658;1.312;2023-06-26T07:53:56;20.08;;;6.32;;
31728;SDS011;18309;43.658;1.312;2023-06-26T07:56:22;11.40;;;5.40;;
31728;SDS011;18309;43.658;1.312;2023-06-26T07:58:48;18.63;;;5.28;;
31728;SDS011;18309;43.658;1.312;2023-06-26T08:01:13;15.38;;;6.05;;
31728;SDS011;18309;43.658;1.312;2023-06-26T08:03:39;10.57;;;5.40;;
31728;SDS011;18309;43.658;1.312;2023-06-26T08:06:05;18.70;;;5.68;;
31728;SDS011;18309;43.658;1.312;2023-06-26T08:08:31;14.02;;;5.80;;
31728;SDS011;18309;43.658;1.312;2023-06-26T08:10:56;17.00;;;5.95;;
31728;SDS011;18309;43.658;1.312;2023-06-26T08:13:22;16.38;;;5.45;;
31728;SDS011;18309;43.658;1.312;2023-06-26T08:15:48;17.75;;;5.95;;
31728;SDS011;18309;43.658;1.312;2023-06-26T08:18:14;13.52;;;5.13;;
31728;SDS011;18309;43.658;1.312;2023-06-26T08:20:40;15.73;;;6.10;;
31728;SDS011;18309;43.658;1.312;2023-06-26T08:23:05;13.45;;;5.30;;
31728;SDS011;18309;43.658;1.312;2023-06-26T08:25:31;13.73;;;5.10;;
31728;SDS011;18309;43.658;1.312;2023-06-26T08:27:57;22.75;;;5.80;;
31728;SDS011;18309;43.658;1.312;2023-06-26T08:30:23;14.80;;;5.75;;
31728;SDS011;18309;43.658;1.312;2023-06-26T08:32:52;20.17;;;5.53;;
31728;SDS011;18309;43.658;1.312;2023-06-26T08:35:21;14.25;;;5.57;;
31728;SDS011;18309;43.658;1.312;2023-06-26T08:37:47;11.20;;;4.85;;
31728;SDS011;18309;43.658;1.312;2023-06-26T08:40:12;18.55;;;5.50;;
31728;SDS011;18309;43.658;1.312;2023-06-26T08:42:42;14.25;;;5.28;;
31728;SDS011;18309;43.658;1.312;2023-06-26T08:45:08;10.55;;;5.20;;
31728;SDS011;18309;43.658;1.312;2023-06-26T08:47:34;20.52;;;6.28;;
31728;SDS011;18309;43.658;1.312;2023-06-26T08:50:13;15.13;;;5.18;;
31728;SDS011;18309;43.658;1.312;2023-06-26T08:55:08;18.30;;;5.53;;
31728;SDS011;18309;43.658;1.312;2023-06-26T08:57:36;16.10;;;5.13;;
31728;SDS011;18309;43.658;1.312;2023-06-26T09:00:02;20.17;;;7.00;;
31728;SDS011;18309;43.658;1.312;2023-06-26T09:02:28;21.65;;;5.72;;
31728;SDS011;18309;43.658;1.312;2023-06-26T09:04:54;12.73;;;4.97;;
31728;SDS011;18309;43.658;1.312;2023-06-26T09:07:20;12.70;;;5.35;;
31728;SDS011;18309;43.658;1.312;2023-06-26T09:09:46;19.52;;;6.35;;
31728;SDS011;18309;43.658;1.312;2023-06-26T09:12:12;20.20;;;5.82;;
31728;SDS011;18309;43.658;1.312;2023-06-26T09:14:38;15.25;;;5.35;;
31728;SDS011;18309;43.658;1.312;2023-06-26T09:17:05;16.30;;;5.32;;
31728;SDS011;18309;43.658;1.312;2023-06-26T09:19:31;13.80;;;5.63;;
31728;SDS011;18309;43.658;1.312;2023-06-26T09:21:57;15.10;;;5.47;;
31728;SDS011;18309;43.658;1.312;2023-06-26T09:24:23;14.95;;;5.20;;
31728;SDS011;18309;43.658;1.312;2023-06-26T09:26:50;14.95;;;6.18;;
31728;SDS011;18309;43.658;1.312;2023-06-26T09:29:17;11.88;;;4.75;;
31728;SDS011;18309;43.658;1.312;2023-06-26T09:31:43;18.60;;;6.18;;
31728;SDS011;18309;43.658;1.312;2023-06-26T09:34:09;19.75;;;6.40;;
31728;SDS011;18309;43.658;1.312;2023-06-26T09:36:36;22.73;;;5.80;;
31728;SDS011;18309;43.658;1.312;2023-06-26T09:39:03;15.52;;;5.53;;
31728;SDS011;18309;43.658;1.312;2023-06-26T09:41:33;17.25;;;5.78;;
31728;SDS011;18309;43.658;1.312;2023-06-26T09:44:01;13.40;;;5.55;;
31728;SDS011;18309;43.658;1.312;2023-06-26T09:46:28;20.23;;;5.22;;
31728;SDS011;18309;43.658;1.312;2023-06-26T09:48:58;18.33;;;5.22;;
31728;SDS011;18309;43.658;1.312;2023-06-26T09:51:28;23.90;;;6.10;;
31728;SDS011;18309;43.658;1.312;2023-06-26T09:53:55;14.27;;;5.35;;
31728;SDS011;18309;43.658;1.312;2023-06-26T09:56:21;20.65;;;5.88;;
31728;SDS011;18309;43.658;1.312;2023-06-26T09:58:47;15.60;;;5.20;;
31728;SDS011;18309;43.658;1.312;2023-06-26T10:01:14;19.77;;;5.93;;
31728;SDS011;18309;43.658;1.312;2023-06-26T10:03:39;13.60;;;5.10;;
31728;SDS011;18309;43.658;1.312;2023-06-26T10:06:05;22.30;;;6.05;;
31728;SDS011;18309;43.658;1.312;2023-06-26T10:08:34;20.05;;;5.65;;
31728;SDS011;18309;43.658;1.312;2023-06-26T10:11:02;18.60;;;5.18;;
31728;SDS011;18309;43.658;1.312;2023-06-26T10:13:30;16.50;;;6.05;;
31728;SDS011;18309;43.658;1.312;2023-06-26T10:15:59;15.55;;;5.60;;
31728;SDS011;18309;43.658;1.312;2023-06-26T10:18:26;14.57;;;5.50;;
31728;SDS011;18309;43.658;1.312;2023-06-26T10:20:55;13.98;;;5.05;;
31728;SDS011;18309;43.658;1.312;2023-06-26T10:23:23;18.63;;;5.68;;
31728;SDS011;18309;43.658;1.312;2023-06-26T10:25:51;17.67;;;5.70;;
31728;SDS011;18309;43.658;1.312;2023-06-26T10:28:19;23.70;;;5.75;;
31728;SDS011;18309;43.658;1.312;2023-06-26T10:30:46;15.35;;;5.63;;
31728;SDS011;18309;43.658;1.312;2023-06-26T10:33:15;14.02;;;4.93;;
31728;SDS011;18309;43.658;1.312;2023-06-26T10:35:45;16.35;;;5.10;;
31728;SDS011;18309;43.658;1.312;2023-06-26T10:38:11;11.82;;;5.00;;
31728;SDS011;18309;43.658;1.312;2023-06-26T10:40:44;14.05;;;5.15;;
31728;SDS011;18309;43.658;1.312;2023-06-26T10:43:14;11.98;;;4.65;;
31728;SDS011;18309;43.658;1.312;2023-06-26T10:45:48;9.95;;;4.93;;
31728;SDS011;18309;43.658;1.312;2023-06-26T10:48:19;12.48;;;5.25;;
31728;SDS011;18309;43.658;1.312;2023-06-26T10:50:49;10.10;;;4.82;;
31728;SDS011;18309;43.658;1.312;2023-06-26T10:53:16;17.73;;;5.27;;
31728;SDS011;18309;43.658;1.312;2023-06-26T11:01:40;22.38;;;5.95;;
31728;SDS011;18309;43.658;1.312;2023-06-26T11:04:07;9.98;;;4.45;;
31728;SDS011;18309;43.658;1.312;2023-06-26T11:06:34;10.32;;;4.75;;
31728;SDS011;18309;43.658;1.312;2023-06-26T11:14:17;11.40;;;4.38;;
31728;SDS011;18309;43.658;1.312;2023-06-26T11:16:43;9.68;;;3.92;;
31728;SDS011;18309;43.658;1.312;2023-06-26T11:19:09;8.95;;;4.40;;
31728;SDS011;18309;43.658;1.312;2023-06-26T11:21:39;14.48;;;4.80;;
31728;SDS011;18309;43.658;1.312;2023-06-26T11:24:08;11.85;;;5.38;;
31728;SDS011;18309;43.658;1.312;2023-06-26T11:26:41;13.48;;;5.30;;
31728;SDS011;18309;43.658;1.312;2023-06-26T11:29:08;11.55;;;5.43;;
31728;SDS011;18309;43.658;1.312;2023-06-26T11:31:39;13.32;;;6.10;;
31728;SDS011;18309;43.658;1.312;2023-06-26T11:34:07;12.68;;;5.88;;
31728;SDS011;18309;43.658;1.312;2023-06-26T11:36:37;14.25;;;5.30;;
31728;SDS011;18309;43.658;1.312;2023-06-26T11:39:04;13.23;;;5.38;;
31728;SDS011;18309;43.658;1.312;2023-06-26T11:41:31;15.65;;;5.72;;
31728;SDS011;18309;43.658;1.312;2023-06-26T11:44:02;12.77;;;5.45;;
31728;SDS011;18309;43.658;1.312;2023-06-26T11:46:28;17.67;;;6.43;;
31728;SDS011;18309;43.658;1.312;2023-06-26T11:48:55;17.48;;;5.78;;
31728;SDS011;18309;43.658;1.312;2023-06-26T11:51:20;15.18;;;5.75;;
31728;SDS011;18309;43.658;1.312;2023-06-26T11:53:46;12.90;;;4.65;;
31728;SDS011;18309;43.658;1.312;2023-06-26T11:56:16;13.52;;;4.65;;
31728;SDS011;18309;43.658;1.312;2023-06-26T12:01:34;10.63;;;5.32;;
31728;SDS011;18309;43.658;1.312;2023-06-26T12:04:05;12.25;;;5.20;;
31728;SDS011;18309;43.658;1.312;2023-06-26T12:06:36;13.55;;;5.40;;
31728;SDS011;18309;43.658;1.312;2023-06-26T12:09:05;12.38;;;5.57;;
31728;SDS011;18309;43.658;1.312;2023-06-26T12:11:34;8.43;;;4.68;;
31728;SDS011;18309;43.658;1.312;2023-06-26T12:14:01;12.18;;;5.07;;
31728;SDS011;18309;43.658;1.312;2023-06-26T12:16:29;6.97;;;4.72;;
31728;SDS011;18309;43.658;1.312;2023-06-26T12:19:03;13.90;;;4.78;;
31728;SDS011;18309;43.658;1.312;2023-06-26T12:24:09;13.93;;;5.82;;
31728;SDS011;18309;43.658;1.312;2023-06-26T12:26:41;11.82;;;5.15;;
31728;SDS011;18309;43.658;1.312;2023-06-26T12:29:11;12.45;;;4.88;;
31728;SDS011;18309;43.658;1.312;2023-06-26T12:31:41;11.23;;;4.82;;
31728;SDS011;18309;43.658;1.312;2023-06-26T12:34:14;14.85;;;5.30;;
31728;SDS011;18309;43.658;1.312;2023-06-26T12:36:45;11.57;;;5.00;;
31728;SDS011;18309;43.658;1.312;2023-06-26T12:41:46;11.95;;;4.30;;
31728;SDS011;18309;43.658;1.312;2023-06-26T12:44:32;12.63;;;4.55;;
31728;SDS011;18309;43.658;1.312;2023-06-26T12:46:59;11.18;;;4.40;;
31728;SDS011;18309;43.658;1.312;2023-06-26T12:49:45;10.05;;;4.55;;
31728;SDS011;18309;43.658;1.312;2023-06-26T12:52:15;13.15;;;5.32;;
31728;SDS011;18309;43.658;1.312;2023-06-26T12:54:41;12.07;;;4.90;;
31728;SDS011;18309;43.658;1.312;2023-06-26T12:57:08;16.02;;;4.78;;
31728;SDS011;18309;43.658;1.312;2023-06-26T12:59:38;12.55;;;4.57;;
31728;SDS011;18309;43.658;1.312;2023-06-26T13:02:04;11.35;;;4.20;;
31728;SDS011;18309;43.658;1.312;2023-06-26T13:04:30;12.82;;;4.40;;
31728;SDS011;18309;43.658;1.312;2023-06-26T13:06:56;10.27;;;4.90;;
31728;SDS011;18309;43.658;1.312;2023-06-26T13:09:25;10.88;;;4.47;;
31728;SDS011;18309;43.658;1.312;2023-06-26T13:11:51;11.32;;;4.50;;
31728;SDS011;18309;43.658;1.312;2023-06-26T13:14:17;7.78;;;4.32;;
31728;SDS011;18309;43.658;1.312;2023-06-26T13:16:43;12.63;;;4.22;;
31728;SDS011;18309;43.658;1.312;2023-06-26T13:19:09;8.10;;;4.32;;
31728;SDS011;18309;43.658;1.312;2023-06-26T13:21:36;6.45;;;3.83;;
31728;SDS011;18309;43.658;1.312;2023-06-26T13:24:02;12.60;;;4.05;;
31728;SDS011;18309;43.658;1.312;2023-06-26T13:26:30;12.55;;;4.35;;
31728;SDS011;18309;43.658;1.312;2023-06-26T13:28:56;11.32;;;4.32;;
31728;SDS011;18309;43.658;1.312;2023-06-26T13:31:22;9.73;;;4.35;;
31728;SDS011;18309;43.658;1.312;2023-06-26T13:33:48;8.45;;;3.65;;
31728;SDS011;18309;43.658;1.312;2023-06-26T13:36:14;9.02;;;4.07;;
31728;SDS011;18309;43.658;1.312;2023-06-26T13:38:41;8.23;;;3.72;;
31728;SDS011;18309;43.658;1.312;2023-06-26T13:41:06;13.68;;;4.25;;
31728;SDS011;18309;43.658;1.312;2023-06-26T13:43:32;11.20;;;4.15;;
31728;SDS011;18309;43.658;1.312;2023-06-26T13:45:58;13.70;;;4.50;;
31728;SDS011;18309;43.658;1.312;2023-06-26T13:48:24;9.18;;;3.63;;
31728;SDS011;18309;43.658;1.312;2023-06-26T13:50:49;13.00;;;4.43;;
31728;SDS011;18309;43.658;1.312;2023-06-26T13:53:16;9.30;;;4.32;;
31728;SDS011;18309;43.658;1.312;2023-06-26T13:55:42;7.88;;;3.53;;
31728;SDS011;18309;43.658;1.312;2023-06-26T13:58:08;10.15;;;4.05;;
31728;SDS011;18309;43.658;1.312;2023-06-26T14:00:34;9.35;;;3.60;;
31728;SDS011;18309;43.658;1.312;2023-06-26T14:03:01;10.43;;;4.35;;
31728;SDS011;18309;43.658;1.312;2023-06-26T14:05:29;7.70;;;3.85;;
31728;SDS011;18309;43.658;1.312;2023-06-26T14:07:55;7.72;;;3.67;;
31728;SDS011;18309;43.658;1.312;2023-06-26T14:10:21;13.05;;;4.15;;
31728;SDS011;18309;43.658;1.312;2023-06-26T14:12:47;10.90;;;4.25;;
31728;SDS011;18309;43.658;1.312;2023-06-26T14:15:13;10.65;;;3.95;;
31728;SDS011;18309;43.658;1.312;2023-06-26T14:17:39;8.60;;;3.95;;
31728;SDS011;18309;43.658;1.312;2023-06-26T14:20:09;5.18;;;3.47;;
31728;SDS011;18309;43.658;1.312;2023-06-26T14:22:40;9.55;;;4.18;;
31728;SDS011;18309;43.658;1.312;2023-06-26T14:25:07;11.80;;;4.10;;
31728;SDS011;18309;43.658;1.312;2023-06-26T14:27:33;9.43;;;4.13;;
31728;SDS011;18309;43.658;1.312;2023-06-26T14:29:59;9.60;;;4.30;;
31728;SDS011;18309;43.658;1.312;2023-06-26T14:32:25;9.93;;;4.20;;
31728;SDS011;18309;43.658;1.312;2023-06-26T14:34:51;7.45;;;3.50;;
31728;SDS011;18309;43.658;1.312;2023-06-26T14:37:16;10.15;;;3.88;;
31728;SDS011;18309;43.658;1.312;2023-06-26T14:39:44;12.15;;;3.80;;
31728;SDS011;18309;43.658;1.312;2023-06-26T14:42:09;7.57;;;4.32;;
31728;SDS011;18309;43.658;1.312;2023-06-26T14:44:35;12.27;;;4.13;;
31728;SDS011;18309;43.658;1.312;2023-06-26T14:47:01;10.45;;;3.83;;
31728;SDS011;18309;43.658;1.312;2023-06-26T14:49:27;12.88;;;4.30;;
31728;SDS011;18309;43.658;1.312;2023-06-26T14:51:52;11.15;;;4.07;;
31728;SDS011;18309;43.658;1.312;2023-06-26T14:54:18;9.50;;;3.55;;
31728;SDS011;18309;43.658;1.312;2023-06-26T14:56:44;15.05;;;3.92;;
31728;SDS011;18309;43.658;1.312;2023-06-26T14:59:10;12.38;;;4.32;;
31728;SDS011;18309;43.658;1.312;2023-06-26T15:01:37;11.27;;;4.18;;
31728;SDS011;18309;43.658;1.312;2023-06-26T15:04:04;10.65;;;4.18;;